KRRL/RRL METAR and TAF weather

Enter ICAO airport designator
Station Type Date Time Source
KRRL METAR 2019/04/25 08:15 UTC NOAA

KRRL 250815Z AUTO 00000KT 10SM CLR 10/06 A2974 RMK AO2 T01000064 TSNO


Station Type Date Time Source
KRRL Decoded METAR 2019/04/25 08:15 UTC NOAA

Merrill, Merrill Municipal Airport, WI, United States (KRRL) 45-11N 089-42W
Apr 25, 2019 - 04:15 AM EDT / 2019.04.25 0815 UTC
Wind: Calm:0
Visibility: 10 mile(s):0
Sky conditions: clear
Temperature: 50.0 F (10.0 C)
Dew Point: 43.5 F (6.4 C)
Relative Humidity: 78%
Pressure (altimeter): 29.74 in. Hg (1007 hPa)
ob: KRRL 250815Z AUTO 00000KT 10SM CLR 10/06 A2974 RMK AO2 T01000064 TSNO
cycle: 8

Station Type Date Time Source
KRRL TAF UTC NOAA

Error!

Example: see airport list